Time;durP1;ratioP1;P1;durP2;ratioP2;P2;SDS_P1;SDS_P2;PMS_P1;PMS_P2;Temp;Humidity;BMP_temperature;BMP_pressure;BME280_temperature;BME280_humidity;BME280_pressure;Samples;Min_cycle;Max_cycle;Signal;HPM_P1;HPM_P2
2021/06/19 00:00:14;;;;;;;8.45;3.70;;;;;;;18.30;100.00;100835.15;1716168;81;21491;-59
2021/06/19 00:02:41;;;;;;;10.25;3.55;;;;;;;18.32;100.00;100839.98;1730775;81;31588;-58
2021/06/19 00:05:08;;;;;;;5.83;3.62;;;;;;;18.38;100.00;100844.14;1734289;81;21701;-58
2021/06/19 00:07:35;;;;;;;8.83;4.10;;;;;;;18.43;100.00;100839.27;1744525;80;21039;-59
2021/06/19 00:10:03;;;;;;;13.03;3.95;;;;;;;18.46;100.00;100843.64;1747844;80;20956;-59
2021/06/19 00:12:30;;;;;;;9.38;3.67;;;;;;;18.49;100.00;100852.92;1749821;80;20901;-59
2021/06/19 00:14:58;;;;;;;7.22;3.75;;;;;;;18.46;100.00;100849.92;1748101;80;21039;-59
2021/06/19 00:17:25;;;;;;;8.68;3.87;;;;;;;18.40;100.00;100852.16;1748943;80;20934;-59
2021/06/19 00:19:51;;;;;;;6.37;3.60;;;;;;;18.36;100.00;100845.20;1752848;80;20956;-59
2021/06/19 00:22:18;;;;;;;7.80;3.67;;;;;;;18.35;100.00;100848.89;1747603;80;21567;-59
2021/06/19 00:24:45;;;;;;;11.78;4.25;;;;;;;18.34;100.00;100843.94;1747626;81;21017;-60
2021/06/19 00:27:13;;;;;;;15.00;3.83;;;;;;;18.36;100.00;100850.63;1743937;80;21019;-59
2021/06/19 00:29:40;;;;;;;8.20;3.80;;;;;;;18.32;100.00;100842.70;1747361;80;21089;-59
2021/06/19 00:32:07;;;;;;;7.12;3.95;;;;;;;18.29;100.00;100842.02;1744461;80;22046;-59
2021/06/19 00:34:33;;;;;;;9.85;3.87;;;;;;;18.27;100.00;100836.72;1751313;80;20916;-59
2021/06/19 00:36:59;;;;;;;9.58;3.92;;;;;;;18.27;100.00;100838.07;1749475;80;21091;-59
2021/06/19 00:39:28;;;;;;;8.40;3.52;;;;;;;18.29;100.00;100840.19;1750289;80;20980;-59
2021/06/19 00:41:55;;;;;;;14.70;4.97;;;;;;;18.28;100.00;100835.73;1749142;80;21124;-59
2021/06/19 00:44:22;;;;;;;10.05;3.50;;;;;;;18.26;100.00;100851.25;1746851;80;21469;-58
2021/06/19 00:46:51;;;;;;;7.70;4.28;;;;;;;18.29;100.00;100848.33;1749179;80;20885;-59
2021/06/19 00:49:20;;;;;;;7.65;3.90;;;;;;;18.35;100.00;100842.11;1746179;80;21117;-59
2021/06/19 00:51:47;;;;;;;6.08;3.60;;;;;;;18.38;100.00;100846.86;1748290;80;21015;-59
2021/06/19 00:54:13;;;;;;;12.18;3.98;;;;;;;18.40;100.00;100852.16;1747800;80;21588;-59
2021/06/19 00:56:40;;;;;;;9.83;4.40;;;;;;;18.41;100.00;100845.77;1746562;80;20952;-58
2021/06/19 00:59:08;;;;;;;13.25;3.95;;;;;;;18.38;100.00;100857.72;1749537;80;20936;-59
2021/06/19 01:01:35;;;;;;;7.03;3.83;;;;;;;18.34;100.00;100871.08;1749201;80;21574;-59
2021/06/19 01:04:02;;;;;;;6.78;3.72;;;;;;;18.32;100.00;100867.13;1750990;80;21505;-59
2021/06/19 01:06:29;;;;;;;8.75;3.85;;;;;;;18.35;100.00;100857.03;1749285;80;21089;-60
2021/06/19 01:08:55;;;;;;;11.63;4.12;;;;;;;18.35;100.00;100859.75;1734963;81;21081;-59
2021/06/19 01:11:22;;;;;;;11.08;4.22;;;;;;;18.32;100.00;100858.98;1739945;81;21064;-59
2021/06/19 01:13:50;;;;;;;9.58;3.83;;;;;;;18.28;100.00;100866.95;1732443;81;21123;-59
2021/06/19 01:16:20;;;;;;;13.10;3.90;;;;;;;18.27;100.00;100889.62;1736245;81;20958;-59
2021/06/19 01:18:47;;;;;;;5.35;3.85;;;;;;;18.28;100.00;100859.28;1737934;81;21831;-59
2021/06/19 01:21:18;;;;;;;6.67;3.87;;;;;;;18.29;100.00;100863.73;1734862;81;20952;-59
2021/06/19 01:23:46;;;;;;;12.50;4.08;;;;;;;18.31;100.00;100865.39;1734633;81;21436;-59
2021/06/19 01:26:15;;;;;;;8.70;4.10;;;;;;;18.31;100.00;100874.88;1713142;81;20925;-59
2021/06/19 01:28:44;;;;;;;10.03;4.05;;;;;;;18.29;100.00;100871.40;1733501;81;20898;-59
2021/06/19 01:31:11;;;;;;;7.78;3.67;;;;;;;18.30;100.00;100869.07;1739424;81;21624;-59
2021/06/19 01:33:38;;;;;;;5.53;3.47;;;;;;;18.34;100.00;100872.44;1732564;81;21100;-59
2021/06/19 01:36:06;;;;;;;8.75;4.20;;;;;;;18.38;100.00;100871.75;1737914;81;21024;-59
2021/06/19 01:38:38;;;;;;;7.67;4.45;;;;;;;18.45;100.00;100882.58;1737012;81;21639;-60
2021/06/19 01:41:16;;;;;;;10.80;3.60;;;;;;;18.47;100.00;100884.73;1737472;81;21537;-60
2021/06/19 01:43:45;;;;;;;11.30;4.37;;;;;;;18.43;100.00;100873.67;1702784;81;20985;-59
2021/06/19 01:46:12;;;;;;;10.08;4.75;;;;;;;18.42;100.00;100872.81;1734904;81;20969;-59
2021/06/19 01:48:38;;;;;;;6.72;4.10;;;;;;;18.44;100.00;100878.13;1734958;81;20938;-59
2021/06/19 01:51:11;;;;;;;9.78;4.80;;;;;;;18.44;100.00;100874.05;1735419;81;21064;-59
2021/06/19 01:53:40;;;;;;;6.65;4.17;;;;;;;18.42;100.00;100882.79;1731729;81;21423;-58
2021/06/19 01:56:08;;;;;;;12.37;4.42;;;;;;;18.40;100.00;100884.73;1732158;81;21763;-59
2021/06/19 01:58:35;;;;;;;7.03;3.80;;;;;;;18.36;100.00;100873.70;1737860;81;20976;-59
2021/06/19 02:01:04;;;;;;;10.03;4.65;;;;;;;18.31;100.00;100875.35;1734827;81;33909;-59
2021/06/19 02:03:30;;;;;;;7.10;4.17;;;;;;;18.25;100.00;100883.44;1733856;81;20956;-59
2021/06/19 02:05:58;;;;;;;9.85;4.08;;;;;;;18.22;100.00;100875.47;1736501;81;21907;-58
2021/06/19 02:08:25;;;;;;;7.10;3.98;;;;;;;18.20;100.00;100884.20;1745187;80;21440;-59
2021/06/19 02:10:52;;;;;;;6.10;3.80;;;;;;;18.22;100.00;100870.05;1737334;80;21024;-60
2021/06/19 02:13:18;;;;;;;5.60;4.53;;;;;;;18.21;100.00;100871.52;1739973;80;21056;-59
2021/06/19 02:15:46;;;;;;;12.98;4.40;;;;;;;18.17;100.00;100872.19;1745159;80;20980;-59
2021/06/19 02:18:14;;;;;;;9.18;4.17;;;;;;;18.16;100.00;100885.38;1741905;80;21340;-59
2021/06/19 02:20:40;;;;;;;6.62;4.00;;;;;;;18.18;100.00;100874.82;1736065;81;21469;-60
2021/06/19 02:23:07;;;;;;;11.95;4.37;;;;;;;18.20;100.00;100867.92;1741041;80;20933;-60
2021/06/19 02:25:34;;;;;;;5.47;3.80;;;;;;;18.20;100.00;100872.48;1736492;80;21122;-61
2021/06/19 02:28:06;;;;;;;6.70;3.27;;;;;;;18.18;100.00;100875.29;1736049;80;21162;-60
2021/06/19 02:30:43;;;;;;;10.68;4.10;;;;;;;18.16;100.00;100876.77;1735779;80;20958;-59
2021/06/19 02:33:09;;;;;;;9.05;3.40;;;;;;;18.15;100.00;100867.35;1740131;81;21509;-59
2021/06/19 02:35:38;;;;;;;8.33;3.72;;;;;;;18.16;100.00;100888.09;1734847;80;21058;-60
2021/06/19 02:38:05;;;;;;;9.73;3.40;;;;;;;18.18;100.00;100884.31;1736494;80;20865;-60
2021/06/19 02:40:35;;;;;;;6.30;3.47;;;;;;;18.23;100.00;100900.27;1749049;80;22856;-60
2021/06/19 02:43:02;;;;;;;8.05;3.75;;;;;;;18.27;100.00;100890.10;1745271;80;21084;-60
2021/06/19 02:45:29;;;;;;;9.13;4.05;;;;;;;18.29;100.00;100890.87;1742228;80;22489;-60
2021/06/19 02:47:58;;;;;;;7.75;3.87;;;;;;;18.30;100.00;100888.07;1745025;80;20996;-61
2021/06/19 02:50:29;;;;;;;7.30;3.98;;;;;;;18.32;100.00;100898.80;1743702;80;21394;-61
2021/06/19 02:52:59;;;;;;;6.97;3.67;;;;;;;18.30;100.00;100903.00;1741179;80;20910;-60
2021/06/19 02:55:28;;;;;;;11.78;4.40;;;;;;;18.27;100.00;100899.13;1738187;80;21568;-60
2021/06/19 02:57:55;;;;;;;8.73;3.67;;;;;;;18.27;100.00;100908.63;1741385;80;21380;-60
2021/06/19 03:00:22;;;;;;;7.05;3.80;;;;;;;18.27;100.00;100885.56;1739478;80;21534;-60
2021/06/19 03:02:50;;;;;;;10.93;4.08;;;;;;;18.27;100.00;100896.41;1763805;80;34501;-60
2021/06/19 03:05:20;;;;;;;7.97;3.67;;;;;;;18.24;100.00;100903.88;1769051;80;22237;-59
2021/06/19 03:07:47;;;;;;;5.40;3.72;;;;;;;18.24;100.00;100893.91;1769110;79;21017;-60
2021/06/19 03:10:16;;;;;;;10.20;3.85;;;;;;;18.25;100.00;100901.55;1769165;79;21099;-60
2021/06/19 03:12:43;;;;;;;6.53;3.72;;;;;;;18.27;100.00;100896.41;1767691;80;21561;-60
2021/06/19 03:15:10;;;;;;;7.45;3.70;;;;;;;18.28;100.00;100903.58;1771897;80;21612;-60
2021/06/19 03:17:36;;;;;;;8.08;3.67;;;;;;;18.27;100.00;100907.27;1764329;80;21406;-60
2021/06/19 03:20:06;;;;;;;8.40;3.47;;;;;;;18.26;100.00;100938.09;1765340;80;21466;-60
2021/06/19 03:22:58;;;;;;;6.30;3.40;;;;;;;18.28;100.00;100916.27;1767935;79;21101;-60
2021/06/19 03:25:37;;;;;;;5.67;3.58;;;;;;;18.29;100.00;100943.32;1768890;79;21763;-61
2021/06/19 03:28:05;;;;;;;6.40;3.50;;;;;;;18.30;100.00;100950.48;1764247;80;21514;-61
2021/06/19 03:30:35;;;;;;;9.25;4.12;;;;;;;18.32;100.00;100940.41;1766015;79;21068;-61
2021/06/19 03:33:03;;;;;;;5.37;3.37;;;;;;;18.32;100.00;100948.55;1770288;80;21368;-60
2021/06/19 03:35:29;;;;;;;8.65;3.55;;;;;;;18.33;100.00;100941.26;1768503;79;21310;-60
2021/06/19 03:37:56;;;;;;;9.40;3.70;;;;;;;18.33;100.00;100946.22;1768013;80;20957;-59
2021/06/19 03:40:26;;;;;;;5.03;3.67;;;;;;;18.36;100.00;100935.66;1768564;79;21509;-59
2021/06/19 03:42:53;;;;;;;8.38;3.70;;;;;;;18.40;100.00;100949.88;1766775;79;21013;-59
2021/06/19 03:45:28;;;;;;;10.25;3.52;;;;;;;18.42;100.00;100965.58;1770102;80;21105;-59
2021/06/19 03:47:55;;;;;;;10.32;3.37;;;;;;;18.40;100.00;100946.70;1768090;80;21023;-59
2021/06/19 03:50:24;;;;;;;6.53;3.33;;;;;;;18.44;100.00;100945.98;1766441;80;21079;-59
2021/06/19 03:52:52;;;;;;;5.95;3.60;;;;;;;18.46;100.00;100953.58;1767548;79;20945;-58
2021/06/19 03:55:19;;;;;;;7.42;3.50;;;;;;;18.50;100.00;100951.04;1763954;80;20898;-59
2021/06/19 03:57:45;;;;;;;8.38;3.83;;;;;;;18.53;100.00;100957.62;1768343;80;21048;-59
2021/06/19 04:00:14;;;;;;;8.13;3.22;;;;;;;18.52;100.00;100966.73;1764921;80;21935;-59
2021/06/19 04:02:42;;;;;;;6.33;3.45;;;;;;;18.54;100.00;100965.27;1765714;80;28215;-59
2021/06/19 04:05:11;;;;;;;7.25;3.72;;;;;;;18.54;100.00;100983.80;1767127;80;20983;-59
2021/06/19 04:07:39;;;;;;;4.60;3.12;;;;;;;18.55;100.00;100961.10;1725376;81;21099;-59
2021/06/19 04:10:07;;;;;;;9.50;3.80;;;;;;;18.57;100.00;100959.66;1698940;83;21428;-59
2021/06/19 04:12:34;;;;;;;7.70;3.45;;;;;;;18.61;100.00;100951.70;1724808;81;21942;-60
2021/06/19 04:15:00;;;;;;;10.28;4.00;;;;;;;18.64;100.00;100962.81;1726885;81;21545;-61
2021/06/19 04:17:30;;;;;;;7.62;3.80;;;;;;;18.68;100.00;100960.28;1723868;81;21570;-59
2021/06/19 04:19:58;;;;;;;7.92;3.77;;;;;;;18.74;100.00;100964.83;1724567;82;21073;-59
2021/06/19 04:22:24;;;;;;;8.13;4.22;;;;;;;18.81;100.00;100953.58;1722260;82;20941;-59
2021/06/19 04:24:51;;;;;;;11.18;4.37;;;;;;;18.82;100.00;100958.89;1721256;81;21101;-58
2021/06/19 04:27:19;;;;;;;6.95;3.98;;;;;;;18.84;100.00;100970.52;1724030;82;21079;-59
2021/06/19 04:29:46;;;;;;;12.47;4.33;;;;;;;18.86;100.00;100977.22;1722981;82;21590;-60
2021/06/19 04:32:13;;;;;;;11.75;4.37;;;;;;;18.86;100.00;100962.28;1718093;81;21072;-59
2021/06/19 04:34:40;;;;;;;7.30;4.17;;;;;;;18.86;100.00;100961.78;1718914;81;21427;-60
2021/06/19 04:37:08;;;;;;;10.63;4.55;;;;;;;18.84;100.00;100986.81;1724496;81;21549;-60
2021/06/19 04:39:38;;;;;;;9.73;4.80;;;;;;;18.81;100.00;100982.95;1725744;81;20928;-59
2021/06/19 04:42:06;;;;;;;8.63;4.33;;;;;;;18.81;100.00;100988.38;1733704;81;21525;-59
2021/06/19 04:47:22;;;;;;;11.63;4.80;;;;;;;18.89;100.00;100969.72;1716886;81;21059;-59
2021/06/19 04:49:49;;;;;;;13.13;4.87;;;;;;;18.95;100.00;100961.66;1718300;83;21119;-59
2021/06/19 04:52:16;;;;;;;9.15;4.72;;;;;;;19.00;100.00;100966.81;1716262;82;21546;-60
2021/06/19 04:54:43;;;;;;;7.70;4.55;;;;;;;19.00;100.00;100986.69;1714577;82;20886;-60
2021/06/19 04:57:09;;;;;;;6.00;4.40;;;;;;;19.02;100.00;100983.89;1718118;82;21508;-59
2021/06/19 04:59:36;;;;;;;9.30;5.25;;;;;;;19.06;100.00;100982.70;1657438;82;21108;-60
2021/06/19 05:02:03;;;;;;;6.42;4.90;;;;;;;19.11;100.00;100990.55;1691019;82;39702;-59
2021/06/19 05:04:29;;;;;;;11.95;5.95;;;;;;;19.18;100.00;100981.00;1683422;83;20961;-61
2021/06/19 05:06:56;;;;;;;6.60;4.83;;;;;;;19.24;100.00;100979.72;1686914;83;21120;-59
2021/06/19 05:09:22;;;;;;;6.97;5.10;;;;;;;19.29;100.00;100988.42;1682625;83;20989;-60
2021/06/19 05:11:49;;;;;;;11.83;5.15;;;;;;;19.35;100.00;101000.26;1676198;84;21578;-59
2021/06/19 05:14:18;;;;;;;7.37;4.87;;;;;;;19.42;100.00;100999.32;1685902;83;21447;-59
2021/06/19 05:16:45;;;;;;;9.65;4.53;;;;;;;19.47;100.00;100998.03;1730330;81;20942;-59
2021/06/19 05:19:12;;;;;;;8.05;5.08;;;;;;;19.55;100.00;100990.72;1726978;81;21466;-63
2021/06/19 05:21:40;;;;;;;10.10;4.58;;;;;;;19.60;100.00;101005.36;1725466;82;21447;-59
2021/06/19 05:24:12;;;;;;;9.55;4.90;;;;;;;19.61;100.00;101009.82;1727152;81;21502;-59
2021/06/19 05:26:36;;;;;;;8.43;5.20;;;;;;;19.65;100.00;101001.83;1728385;81;21103;-60
2021/06/19 05:29:02;;;;;;;6.25;5.00;;;;;;;19.69;100.00;100992.97;1727813;81;21008;-59
2021/06/19 05:31:31;;;;;;;7.90;5.00;;;;;;;19.73;100.00;101007.59;1732034;81;20857;-60
2021/06/19 05:33:58;;;;;;;15.65;5.62;;;;;;;19.78;100.00;101003.67;1729000;81;20950;-59
2021/06/19 05:36:24;;;;;;;7.95;5.35;;;;;;;19.83;100.00;101008.33;1732520;81;21000;-59
2021/06/19 05:38:51;;;;;;;8.05;4.90;;;;;;;19.89;100.00;101017.41;1729601;81;21556;-59
2021/06/19 05:41:18;;;;;;;10.30;5.70;;;;;;;19.86;100.00;101027.14;1725093;81;21049;-59
2021/06/19 05:43:45;;;;;;;12.03;5.55;;;;;;;19.82;100.00;101031.92;1730121;81;20934;-59
2021/06/19 05:46:11;;;;;;;11.03;5.70;;;;;;;19.84;100.00;101019.08;1730568;81;21070;-58
2021/06/19 05:48:41;;;;;;;6.58;5.12;;;;;;;19.92;100.00;101015.86;1729341;81;21020;-59
2021/06/19 05:51:07;;;;;;;9.23;5.80;;;;;;;20.02;100.00;101010.16;1725703;81;22265;-61
2021/06/19 05:53:34;;;;;;;11.20;5.00;;;;;;;20.13;100.00;101007.15;1729847;81;21510;-60
2021/06/19 05:56:00;;;;;;;6.90;4.80;;;;;;;20.25;100.00;101021.26;1731119;81;21396;-59
2021/06/19 05:58:27;;;;;;;7.10;4.85;;;;;;;20.39;100.00;101023.45;1725572;81;20973;-60
2021/06/19 06:00:54;;;;;;;7.17;4.60;;;;;;;20.47;100.00;101021.92;1730685;81;21005;-60
2021/06/19 06:03:20;;;;;;;9.73;4.90;;;;;;;20.54;100.00;101026.44;1728676;81;21812;-59
2021/06/19 06:05:47;;;;;;;7.62;4.67;;;;;;;20.60;100.00;101018.31;1732747;81;20989;-59
2021/06/19 06:08:13;;;;;;;8.35;5.00;;;;;;;20.68;100.00;101023.20;1729929;81;20964;-60
2021/06/19 06:10:41;;;;;;;6.42;5.00;;;;;;;20.77;100.00;101017.05;1733065;81;20998;-60
2021/06/19 06:13:08;;;;;;;9.58;4.85;;;;;;;20.83;100.00;101030.25;1732330;81;21201;-60
2021/06/19 06:15:34;;;;;;;7.50;4.87;;;;;;;20.93;100.00;101021.41;1730342;81;21707;-61
2021/06/19 06:18:01;;;;;;;6.95;4.78;;;;;;;21.03;100.00;101024.69;1727677;81;20984;-61
2021/06/19 06:20:28;;;;;;;8.35;4.50;;;;;;;21.14;100.00;101033.42;1728709;81;21509;-61
2021/06/19 06:22:55;;;;;;;7.25;4.33;;;;;;;21.21;99.40;101013.86;1732849;81;20989;-62
2021/06/19 06:25:21;;;;;;;8.70;4.70;;;;;;;21.25;98.68;101027.63;1731709;82;20961;-60
2021/06/19 06:27:48;;;;;;;8.50;4.65;;;;;;;21.27;97.86;101025.66;1730607;81;21044;-61
2021/06/19 06:30:15;;;;;;;6.53;5.33;;;;;;;21.29;96.84;101020.47;1731820;81;21430;-61
2021/06/19 06:32:41;;;;;;;7.97;4.55;;;;;;;21.33;96.79;101021.09;1730091;81;21526;-61
2021/06/19 06:35:09;;;;;;;6.17;4.28;;;;;;;21.38;95.76;101018.91;1730732;81;21942;-61
2021/06/19 06:37:38;;;;;;;6.58;4.20;;;;;;;21.43;94.51;101022.61;1728968;81;21051;-59
2021/06/19 06:40:08;;;;;;;9.63;4.58;;;;;;;21.49;94.07;101030.83;1728095;81;21800;-60
2021/06/19 06:42:41;;;;;;;8.00;4.00;;;;;;;21.53;93.59;101026.87;1728062;81;20977;-58
2021/06/19 06:45:09;;;;;;;8.10;4.08;;;;;;;21.52;91.63;101029.22;1723999;81;21512;-59
2021/06/19 06:47:36;;;;;;;7.65;3.98;;;;;;;21.44;91.68;101027.97;1727926;82;21052;-59
2021/06/19 06:50:03;;;;;;;6.92;4.28;;;;;;;21.43;91.70;101019.41;1729629;82;21448;-60
2021/06/19 06:52:31;;;;;;;6.58;3.98;;;;;;;21.47;90.79;101029.09;1736088;81;21403;-60
2021/06/19 06:54:57;;;;;;;7.62;3.87;;;;;;;21.53;90.86;101024.14;1734895;81;20994;-60
2021/06/19 06:57:23;;;;;;;4.72;4.00;;;;;;;21.67;90.45;101020.41;1729554;82;21040;-60
2021/06/19 06:59:50;;;;;;;4.95;3.90;;;;;;;21.81;89.35;101028.36;1726082;81;21136;-59
2021/06/19 07:02:16;;;;;;;6.85;3.65;;;;;;;21.90;88.51;101025.41;1729572;82;21152;-59
2021/06/19 07:04:43;;;;;;;4.25;3.85;;;;;;;21.96;88.41;101022.17;1728637;81;21617;-59
2021/06/19 07:07:10;;;;;;;7.62;4.47;;;;;;;22.03;87.39;101023.45;1727372;81;21571;-60
2021/06/19 07:09:37;;;;;;;6.17;3.80;;;;;;;22.02;86.51;101020.83;1729116;81;20909;-61
2021/06/19 07:12:04;;;;;;;4.40;3.80;;;;;;;22.01;86.28;101013.16;1727621;81;21064;-60
2021/06/19 07:14:31;;;;;;;4.90;3.70;;;;;;;22.01;86.10;101013.16;1731444;81;21804;-61
2021/06/19 07:16:58;;;;;;;10.40;3.90;;;;;;;22.07;86.63;101019.11;1729511;81;21469;-59
2021/06/19 07:19:24;;;;;;;6.12;3.60;;;;;;;22.11;86.60;101015.13;1727715;82;21451;-59
2021/06/19 07:21:51;;;;;;;4.80;3.55;;;;;;;22.10;86.24;101017.49;1734255;81;20932;-61
2021/06/19 07:24:18;;;;;;;8.40;3.95;;;;;;;22.07;85.95;101009.55;1730693;81;20939;-59
2021/06/19 07:26:44;;;;;;;8.78;3.62;;;;;;;22.13;86.24;101009.05;1734202;81;21442;-59
2021/06/19 07:29:11;;;;;;;7.42;3.33;;;;;;;22.21;86.08;101007.92;1730697;81;30138;-61
2021/06/19 07:31:37;;;;;;;7.33;3.65;;;;;;;22.31;85.49;101009.42;1726568;81;21691;-61
2021/06/19 07:34:04;;;;;;;4.65;3.40;;;;;;;22.44;85.23;101014.78;1721728;81;21440;-61
2021/06/19 07:36:30;;;;;;;6.78;3.40;;;;;;;22.54;83.85;101026.72;1731405;81;21065;-60
2021/06/19 07:38:59;;;;;;;9.03;3.83;;;;;;;22.61;83.00;101021.11;1728879;81;21467;-61
2021/06/19 07:41:25;;;;;;;9.80;3.70;;;;;;;22.67;82.78;101010.70;1730715;81;21115;-61
2021/06/19 07:43:53;;;;;;;10.58;3.77;;;;;;;22.74;82.74;101000.98;1736006;81;21962;-61
2021/06/19 07:46:20;;;;;;;4.15;3.22;;;;;;;22.77;81.97;100999.36;1733132;81;21537;-59
2021/06/19 07:48:46;;;;;;;5.92;3.40;;;;;;;22.77;81.74;101015.75;1731872;81;20886;-60
2021/06/19 07:51:13;;;;;;;4.45;3.37;;;;;;;22.77;81.20;101006.19;1723906;81;21406;-59
2021/06/19 07:53:40;;;;;;;7.15;3.92;;;;;;;22.75;80.53;101015.02;1732055;81;21553;-60
2021/06/19 07:56:06;;;;;;;7.00;3.50;;;;;;;22.66;80.04;101006.20;1728274;81;21416;-61
2021/06/19 07:58:33;;;;;;;4.65;3.42;;;;;;;22.56;80.35;101015.16;1729695;81;21005;-60
2021/06/19 08:00:59;;;;;;;3.80;2.70;;;;;;;22.40;79.60;101011.91;1735710;81;20998;-60
2021/06/19 08:03:26;;;;;;;9.28;3.40;;;;;;;22.25;80.53;101009.92;1724457;81;20965;-59
2021/06/19 08:05:52;;;;;;;5.70;3.47;;;;;;;22.25;81.82;101017.64;1732582;81;21857;-59
2021/06/19 08:08:19;;;;;;;4.97;3.40;;;;;;;22.28;81.82;101016.02;1727963;81;21468;-60
2021/06/19 08:10:45;;;;;;;7.20;3.60;;;;;;;22.37;82.32;101020.34;1727361;81;21474;-59
2021/06/19 08:13:12;;;;;;;5.05;3.33;;;;;;;22.46;82.18;101015.05;1723207;81;21502;-60
2021/06/19 08:15:42;;;;;;;3.98;3.55;;;;;;;22.56;82.33;101013.80;1730670;81;21050;-60
2021/06/19 08:18:09;;;;;;;5.40;3.40;;;;;;;22.67;82.48;101015.64;1725395;81;21060;-59
2021/06/19 08:20:36;;;;;;;8.20;3.60;;;;;;;22.74;80.59;101018.75;1727423;81;20971;-60
2021/06/19 08:23:04;;;;;;;10.90;3.42;;;;;;;22.75;80.03;101024.58;1734070;81;20910;-60
2021/06/19 08:25:31;;;;;;;5.47;3.22;;;;;;;22.73;80.43;101015.64;1727029;81;20918;-60
2021/06/19 08:27:57;;;;;;;7.37;3.15;;;;;;;22.75;80.21;101019.12;1732335;81;21107;-61
2021/06/19 08:30:28;;;;;;;4.28;2.92;;;;;;;22.72;79.86;101019.38;1729974;81;21083;-61
2021/06/19 08:32:59;;;;;;;11.53;3.45;;;;;;;22.69;80.03;101020.48;1725811;81;21066;-61
2021/06/19 08:35:25;;;;;;;4.83;3.10;;;;;;;22.68;80.46;101020.63;1728441;81;21508;-62
2021/06/19 08:37:52;;;;;;;6.40;3.35;;;;;;;22.70;81.13;101006.34;1728434;81;20982;-61
2021/06/19 08:40:19;;;;;;;6.95;3.55;;;;;;;22.73;80.72;101011.03;1734261;81;21483;-61
2021/06/19 08:42:45;;;;;;;7.10;3.42;;;;;;;22.78;80.39;101021.59;1699424;81;21173;-60
2021/06/19 08:45:12;;;;;;;4.83;3.17;;;;;;;22.78;79.06;101015.27;1729135;82;21387;-60
2021/06/19 08:47:39;;;;;;;8.70;3.58;;;;;;;22.73;78.23;101010.18;1725946;81;21304;-61
2021/06/19 08:50:14;;;;;;;6.87;3.40;;;;;;;22.66;78.32;101014.39;1727318;81;20944;-60
2021/06/19 08:52:41;;;;;;;7.20;3.33;;;;;;;22.61;79.27;101003.34;1732280;81;21586;-60
2021/06/19 08:55:11;;;;;;;4.35;3.27;;;;;;;22.68;79.38;101006.97;1730899;81;21844;-60
2021/06/19 08:57:38;;;;;;;5.05;3.58;;;;;;;22.77;79.54;101005.30;1725830;81;21576;-60
2021/06/19 09:00:09;;;;;;;6.15;3.20;;;;;;;22.89;78.43;101006.55;1728014;81;21033;-59
2021/06/19 09:02:36;;;;;;;4.75;3.87;;;;;;;22.93;77.72;101013.13;1728550;81;30066;-60
2021/06/19 09:05:13;;;;;;;9.43;4.17;;;;;;;22.92;77.72;100999.94;1731906;81;21009;-60
2021/06/19 09:07:47;;;;;;;5.05;3.17;;;;;;;22.91;77.88;101001.45;1730807;81;21092;-61
2021/06/19 09:10:34;;;;;;;4.87;3.40;;;;;;;22.92;78.90;101003.19;1730403;81;20938;-60
2021/06/19 09:13:20;;;;;;;8.15;3.85;;;;;;;22.98;79.15;100988.99;1734779;81;20897;-60
2021/06/19 09:15:54;;;;;;;7.30;3.52;;;;;;;23.12;79.30;101001.02;1733619;81;20997;-60
2021/06/19 09:18:25;;;;;;;5.25;3.65;;;;;;;23.17;78.13;101000.11;1731076;81;20906;-60
2021/06/19 09:21:02;;;;;;;5.90;3.67;;;;;;;23.20;78.27;100987.17;1691137;83;21865;-60
2021/06/19 09:23:43;;;;;;;8.28;3.50;;;;;;;23.26;77.19;100998.98;1661638;84;21068;-60
2021/06/19 09:26:20;;;;;;;6.35;4.00;;;;;;;23.31;76.50;100985.77;1657244;84;20959;-60
2021/06/19 09:29:11;;;;;;;15.90;4.25;;;;;;;23.39;77.25;100997.42;1688190;83;20935;-60
2021/06/19 09:31:51;;;;;;;6.50;3.67;;;;;;;23.42;76.54;100995.30;1681640;83;20993;-62
2021/06/19 09:34:28;;;;;;;6.45;3.40;;;;;;;23.46;76.34;101000.88;1679199;83;21040;-56
2021/06/19 09:37:11;;;;;;;7.22;3.40;;;;;;;23.44;76.75;100983.73;1671397;84;20920;-56
2021/06/19 09:39:30;;;;;;;5.90;3.42;;;;;;;23.51;76.18;100990.03;1679518;83;21462;-56
2021/06/19 09:42:00;;;;;;;8.95;3.65;;;;;;;23.57;75.97;100992.26;1679783;83;21501;-56
2021/06/19 09:44:42;;;;;;;6.30;3.50;;;;;;;23.60;75.03;100998.31;1690533;83;21009;-56
2021/06/19 09:47:14;;;;;;;11.70;3.70;;;;;;;23.62;74.51;100992.72;1677948;84;21272;-56
2021/06/19 09:49:47;;;;;;;7.25;3.58;;;;;;;23.60;74.59;100991.98;1676291;84;21078;-55
2021/06/19 09:52:14;;;;;;;5.85;3.33;;;;;;;23.62;74.52;100992.72;1689421;83;21061;-55
2021/06/19 09:54:42;;;;;;;7.53;3.40;;;;;;;23.58;73.61;100988.52;1680108;83;21017;-56
2021/06/19 09:57:12;;;;;;;5.45;3.12;;;;;;;23.58;74.01;100987.16;1677011;84;21550;-56
2021/06/19 09:59:39;;;;;;;5.00;2.95;;;;;;;23.64;74.43;100984.36;1676244;83;21921;-55
2021/06/19 10:02:30;;;;;;;5.12;3.00;;;;;;;23.70;72.81;100988.80;1680774;83;43747;-56
2021/06/19 10:04:57;;;;;;;5.03;3.87;;;;;;;23.75;72.39;100982.41;1676131;83;21049;-56
2021/06/19 10:07:28;;;;;;;7.22;3.27;;;;;;;23.84;72.52;100988.95;1677736;83;20928;-56
2021/06/19 10:09:56;;;;;;;3.92;3.30;;;;;;;23.90;71.50;100986.19;1681273;83;21048;-56
2021/06/19 10:12:27;;;;;;;4.00;3.30;;;;;;;23.95;70.47;100987.16;1684126;83;21081;-56
2021/06/19 10:15:11;;;;;;;6.00;3.33;;;;;;;23.96;70.29;100980.16;1678558;83;20924;-57
2021/06/19 10:17:45;;;;;;;6.03;3.30;;;;;;;23.95;71.03;100979.80;1683844;83;20933;-56
2021/06/19 10:20:15;;;;;;;7.08;3.02;;;;;;;23.99;71.87;100966.22;1726685;81;28199;-56
2021/06/19 10:22:43;;;;;;;4.33;2.80;;;;;;;24.07;71.13;100975.65;1727637;81;21010;-56
2021/06/19 10:25:11;;;;;;;4.20;2.80;;;;;;;24.14;70.54;100969.98;1722989;82;21107;-56
2021/06/19 10:27:41;;;;;;;3.15;2.85;;;;;;;24.16;70.34;100970.70;1690973;83;21236;-57
2021/06/19 10:30:10;;;;;;;11.93;3.22;;;;;;;24.20;70.81;100971.31;1686388;83;21224;-57
2021/06/19 10:32:44;;;;;;;9.08;2.70;;;;;;;24.20;69.64;100964.45;1719153;82;20960;-56
2021/06/19 10:35:16;;;;;;;7.45;2.60;;;;;;;24.18;69.23;100965.95;1725632;82;20933;-56
2021/06/19 10:37:44;;;;;;;4.60;2.70;;;;;;;24.17;69.13;100956.00;1728264;81;21861;-56
2021/06/19 10:40:24;;;;;;;9.63;2.75;;;;;;;24.16;68.06;100954.27;1700169;82;21648;-56
2021/06/19 10:42:54;;;;;;;5.47;2.62;;;;;;;24.17;67.87;100960.11;1723486;81;21060;-61
2021/06/19 10:45:24;;;;;;;7.60;2.47;;;;;;;24.22;66.48;100960.59;1678962;84;21034;-60
2021/06/19 10:48:05;;;;;;;3.37;2.45;;;;;;;24.29;66.23;100957.65;1679155;83;20997;-61
2021/06/19 10:50:32;;;;;;;4.35;2.40;;;;;;;24.33;64.96;100959.63;1716774;81;21198;-61
2021/06/19 10:53:03;;;;;;;5.40;2.35;;;;;;;24.33;63.85;100952.77;1725824;81;21568;-59
2021/06/19 10:55:30;;;;;;;4.85;1.95;;;;;;;24.31;62.96;100941.94;1733875;81;20963;-60
2021/06/19 10:58:01;;;;;;;4.17;2.27;;;;;;;24.32;62.73;100935.45;1731280;81;20866;-60
2021/06/19 11:00:34;;;;;;;3.87;2.12;;;;;;;24.35;61.63;100934.31;1730686;80;32410;-60
2021/06/19 11:03:05;;;;;;;4.37;2.10;;;;;;;24.38;60.87;100928.55;1751406;79;21748;-60
2021/06/19 11:05:53;;;;;;;3.98;2.10;;;;;;;24.44;59.66;100927.12;1744946;80;20984;-60
2021/06/19 11:08:20;;;;;;;4.35;2.30;;;;;;;24.45;59.76;100922.86;1756372;80;21454;-61
2021/06/19 11:10:52;;;;;;;3.55;2.10;;;;;;;24.49;60.00;100926.20;1761180;79;20989;-60
2021/06/19 11:13:34;;;;;;;4.58;2.30;;;;;;;24.52;60.17;100925.91;1751353;79;20913;-60
2021/06/19 11:16:04;;;;;;;1.75;1.60;;;;;;;24.57;60.73;100923.61;1702439;83;21139;-61
2021/06/19 11:18:53;;;;;;;3.52;1.70;;;;;;;24.64;57.32;100923.03;1702863;83;20996;-60
2021/06/19 11:21:34;;;;;;;5.78;1.95;;;;;;;24.71;55.23;100916.84;1706065;82;21055;-60
2021/06/19 11:24:06;;;;;;;3.27;1.52;;;;;;;24.76;54.85;100916.45;1701739;83;21059;-60
2021/06/19 11:26:54;;;;;;;3.35;1.27;;;;;;;24.78;53.69;100915.80;1705711;82;21071;-59
2021/06/19 11:29:38;;;;;;;4.97;1.75;;;;;;;24.81;52.43;100916.89;1706059;82;21755;-60